Time;durP1;ratioP1;P1;durP2;ratioP2;P2;SDS_P1;SDS_P2;PMS_P1;PMS_P2;Temp;Humidity;BMP_temperature;BMP_pressure;BME280_temperature;BME280_humidity;BME280_pressure;Samples;Min_cycle;Max_cycle;Signal;HPM_P1;HPM_P2
2022/07/04 00:00:25;;;;;;;;;;;;;;;20.21;82.06;95427.94;5137342;27;984;-49
2022/07/04 00:02:51;;;;;;;;;;;;;;;20.17;82.65;95425.88;5137740;27;968;-49
2022/07/04 00:05:18;;;;;;;;;;;;;;;20.13;83.04;95422.75;5137161;27;995;-49
2022/07/04 00:07:45;;;;;;;;;;;;;;;20.12;82.59;95428.38;5137471;27;1910;-48
2022/07/04 00:10:11;;;;;;;;;;;;;;;20.14;83.12;95429.81;5119031;27;1051;-48
2022/07/04 00:12:38;;;;;;;;;;;;;;;20.25;83.20;95433.75;5137302;27;1047;-49
2022/07/04 00:15:05;;;;;;;;;;;;;;;20.29;83.03;95426.84;5136913;27;1087;-48
2022/07/04 00:17:31;;;;;;;;;;;;;;;20.24;83.05;95429.38;5137228;27;1844;-48
2022/07/04 00:19:57;;;;;;;;;;;;;;;20.20;83.00;95425.41;5118701;27;1104;-48
2022/07/04 00:22:23;;;;;;;;;;;;;;;20.07;82.58;95413.56;5137129;27;1044;-48
2022/07/04 00:24:49;;;;;;;;;;;;;;;19.70;83.02;95426.78;5137026;27;1063;-48
2022/07/04 00:27:15;;;;;;;;;;;;;;;19.63;83.90;95419.69;5136945;27;1910;-48
2022/07/04 00:29:41;;;;;;;;;;;;;;;19.88;83.16;95415.31;5136457;27;992;-48
2022/07/04 00:32:08;;;;;;;;;;;;;;;20.09;83.11;95411.47;5137083;27;1032;-48
2022/07/04 00:34:34;;;;;;;;;;;;;;;20.09;82.82;95414.19;5136674;27;1021;-49
2022/07/04 00:37:00;;;;;;;;;;;;;;;19.82;83.00;95409.88;5136927;27;1023;-48
2022/07/04 00:39:26;;;;;;;;;;;;;;;19.49;84.12;95414.28;5136864;27;980;-48
2022/07/04 00:41:52;;;;;;;;;;;;;;;19.55;84.30;95409.91;5136597;27;1161;-48
2022/07/04 00:44:18;;;;;;;;;;;;;;;19.81;83.66;95400.91;5157340;27;957;-48
2022/07/04 00:46:45;;;;;;;;;;;;;;;19.83;83.75;95401.53;5157117;27;1995;-48
2022/07/04 00:49:12;;;;;;;;;;;;;;;19.77;84.03;95398.81;5157290;27;1052;-48
2022/07/04 00:51:38;;;;;;;;;;;;;;;19.73;83.86;95403.00;5157123;27;1066;-48
2022/07/04 00:54:05;;;;;;;;;;;;;;;19.73;83.79;95409.28;5157306;27;1047;-48
2022/07/04 00:56:31;;;;;;;;;;;;;;;19.77;82.89;95399.69;5157149;27;952;-48
2022/07/04 00:58:59;;;;;;;;;;;;;;;19.76;83.61;95400.72;5157159;27;968;-48
2022/07/04 01:01:25;;;;;;;;;;;;;;;19.57;83.87;95394.25;5157252;27;961;-48
2022/07/04 01:03:51;;;;;;;;;;;;;;;19.51;83.40;95404.06;5157284;27;972;-48
2022/07/04 01:06:18;;;;;;;;;;;;;;;19.31;84.33;95404.09;5156559;27;1051;-48
2022/07/04 01:08:45;;;;;;;;;;;;;;;19.17;85.28;95405.13;5156911;27;1984;-48
2022/07/04 01:11:11;;;;;;;;;;;;;;;19.25;85.37;95413.03;5156741;27;1007;-49
2022/07/04 01:13:37;;;;;;;;;;;;;;;19.19;85.68;95416.59;5156824;27;1174;-48
2022/07/04 01:16:04;;;;;;;;;;;;;;;19.10;85.75;95412.41;5157069;27;1012;-48
2022/07/04 01:18:30;;;;;;;;;;;;;;;19.11;85.41;95419.53;5156641;27;1937;-49
2022/07/04 01:20:56;;;;;;;;;;;;;;;19.08;86.14;95409.09;5156716;27;1025;-49
2022/07/04 01:23:22;;;;;;;;;;;;;;;19.10;86.05;95405.16;5156713;27;976;-49
2022/07/04 01:25:49;;;;;;;;;;;;;;;19.29;84.79;95408.91;5156484;27;996;-49
2022/07/04 01:28:16;;;;;;;;;;;;;;;19.08;85.47;95403.66;5156423;27;1991;-49
2022/07/04 01:30:42;;;;;;;;;;;;;;;19.02;85.92;95407.22;5156363;27;1020;-48
2022/07/04 01:33:08;;;;;;;;;;;;;;;19.21;85.20;95409.09;5156501;27;1054;-48
2022/07/04 01:35:34;;;;;;;;;;;;;;;19.31;84.45;95412.22;5156211;27;1030;-48
2022/07/04 01:38:00;;;;;;;;;;;;;;;19.17;84.73;95417.84;5156297;27;1999;-48
2022/07/04 01:40:26;;;;;;;;;;;;;;;18.94;85.68;95410.13;5156247;27;1091;-49
2022/07/04 01:42:52;;;;;;;;;;;;;;;18.90;85.81;95418.66;5146705;27;1157;-49
2022/07/04 01:45:18;;;;;;;;;;;;;;;18.98;85.78;95416.81;5135616;27;1074;-49
2022/07/04 01:47:45;;;;;;;;;;;;;;;18.91;85.90;95412.22;5135247;27;1947;-49
2022/07/04 01:50:14;;;;;;;;;;;;;;;18.76;86.78;95408.81;5135301;27;1807;-49
2022/07/04 01:52:40;;;;;;;;;;;;;;;18.79;86.47;95408.41;5135167;27;1027;-49
2022/07/04 01:55:07;;;;;;;;;;;;;;;18.96;85.74;95402.63;5135295;27;946;-49
2022/07/04 01:57:33;;;;;;;;;;;;;;;19.14;85.19;95402.81;5135005;27;977;-48
2022/07/04 02:02:43;;;;;;;;;;;;;;;18.85;86.02;95417.59;5135016;27;1027;-48
2022/07/04 02:05:09;;;;;;;;;;;;;;;18.62;86.99;95412.53;5134865;27;1068;-49
2022/07/04 02:07:35;;;;;;;;;;;;;;;18.50;87.90;95421.25;5134805;27;1996;-49
2022/07/04 02:10:02;;;;;;;;;;;;;;;18.67;87.28;95420.91;5134872;27;949;-49
2022/07/04 02:15:13;;;;;;;;;;;;;;;18.59;88.19;95421.91;5135048;27;977;-48
2022/07/04 02:17:39;;;;;;;;;;;;;;;18.50;88.11;95433.97;5116601;27;1106;-49
2022/07/04 02:20:06;;;;;;;;;;;;;;;18.43;88.15;95427.69;5134623;27;1230;-48
2022/07/04 02:22:32;;;;;;;;;;;;;;;18.82;86.67;95421.56;5134617;27;956;-48
2022/07/04 02:24:58;;;;;;;;;;;;;;;18.90;86.98;95429.50;5134748;27;1012;-49
2022/07/04 02:27:24;;;;;;;;;;;;;;;18.71;86.82;95432.97;5134621;27;2049;-49
2022/07/04 02:29:50;;;;;;;;;;;;;;;18.66;87.58;95432.75;5134680;27;1001;-49
2022/07/04 02:32:16;;;;;;;;;;;;;;;18.77;87.26;95436.75;5134552;27;999;-49
2022/07/04 02:34:42;;;;;;;;;;;;;;;18.81;87.29;95436.16;5134492;27;961;-50
2022/07/04 02:37:08;;;;;;;;;;;;;;;18.81;87.25;95443.44;5134313;27;984;-49
2022/07/04 02:39:35;;;;;;;;;;;;;;;18.69;86.49;95445.91;5134861;27;1116;-48
2022/07/04 02:42:01;;;;;;;;;;;;;;;18.61;86.77;95443.34;5135498;27;1211;-49
2022/07/04 02:44:28;;;;;;;;;;;;;;;18.67;86.78;95451.50;5155366;27;991;-49
2022/07/04 02:46:54;;;;;;;;;;;;;;;18.72;85.97;95446.31;5154888;27;1917;-49
2022/07/04 02:49:20;;;;;;;;;;;;;;;18.67;86.38;95445.28;5155181;27;1039;-49
2022/07/04 02:51:46;;;;;;;;;;;;;;;18.64;86.30;95454.63;5154882;27;1074;-49
2022/07/04 02:54:12;;;;;;;;;;;;;;;18.46;86.89;95457.06;5154968;27;1045;-49
2022/07/04 02:56:38;;;;;;;;;;;;;;;18.33;87.98;95464.09;5154960;27;1016;-50
2022/07/04 02:59:04;;;;;;;;;;;;;;;18.43;86.92;95462.88;5154896;27;1016;-49
2022/07/04 03:01:31;;;;;;;;;;;;;;;18.51;87.25;95460.81;5155224;27;1038;-49
2022/07/04 03:03:57;;;;;;;;;;;;;;;18.53;86.97;95463.31;5154818;27;929;-49
2022/07/04 03:06:23;;;;;;;;;;;;;;;18.65;86.43;95471.72;5154677;27;1051;-49
2022/07/04 03:08:49;;;;;;;;;;;;;;;18.67;86.41;95467.75;5154976;27;1910;-48
2022/07/04 03:11:15;;;;;;;;;;;;;;;18.48;86.78;95466.66;5155048;27;1027;-49
2022/07/04 03:13:41;;;;;;;;;;;;;;;18.22;88.21;95463.84;5154726;27;1086;-48
2022/07/04 03:16:07;;;;;;;;;;;;;;;18.09;88.67;95465.44;5154759;27;1015;-48
2022/07/04 03:18:33;;;;;;;;;;;;;;;18.03;88.45;95477.06;5154547;27;1226;-48
2022/07/04 03:21:00;;;;;;;;;;;;;;;18.18;88.85;95479.63;5154881;27;961;-47
2022/07/04 03:23:26;;;;;;;;;;;;;;;18.43;88.06;95479.97;5154599;27;1020;-48
2022/07/04 03:25:52;;;;;;;;;;;;;;;18.55;87.41;95488.31;5154781;27;1008;-48
2022/07/04 03:28:18;;;;;;;;;;;;;;;18.64;87.44;95491.69;5136238;27;1905;-48
2022/07/04 03:30:44;;;;;;;;;;;;;;;18.68;87.04;95490.25;5154873;27;1145;-48
2022/07/04 03:33:10;;;;;;;;;;;;;;;18.56;87.54;95497.31;5154458;27;1016;-48
2022/07/04 03:35:36;;;;;;;;;;;;;;;18.64;87.57;95497.94;5154524;27;1040;-48
2022/07/04 03:38:02;;;;;;;;;;;;;;;18.84;87.57;95489.94;5154760;27;1031;-49
2022/07/04 03:40:30;;;;;;;;;;;;;;;18.96;87.49;95492.03;5154641;27;1035;-48
2022/07/04 03:42:58;;;;;;;;;;;;;;;19.00;86.61;95483.28;5145263;27;1156;-48
2022/07/04 03:45:24;;;;;;;;;;;;;;;18.94;86.08;95481.41;5133959;28;1032;-48
2022/07/04 03:47:50;;;;;;;;;;;;;;;18.83;86.62;95474.69;5133655;28;2000;-48
2022/07/04 03:50:17;;;;;;;;;;;;;;;18.92;87.21;95468.06;5133760;28;1055;-48
2022/07/04 03:52:43;;;;;;;;;;;;;;;18.98;87.10;95471.81;5133946;28;980;-49
2022/07/04 03:55:09;;;;;;;;;;;;;;;18.92;87.88;95476.19;5133700;28;1099;-48
2022/07/04 03:57:35;;;;;;;;;;;;;;;18.97;87.32;95474.72;5133905;28;1011;-48
2022/07/04 04:00:02;;;;;;;;;;;;;;;19.29;86.15;95468.53;5133751;28;1049;-48
2022/07/04 04:02:28;;;;;;;;;;;;;;;19.47;86.19;95473.31;5133786;28;967;-48
2022/07/04 04:07:38;;;;;;;;;;;;;;;19.84;85.47;95476.47;5137599;27;1898;-48
2022/07/04 04:10:05;;;;;;;;;;;;;;;20.03;86.21;95476.63;5137194;27;1144;-48
2022/07/04 04:12:31;;;;;;;;;;;;;;;20.08;84.82;95482.25;5137478;27;1033;-48
2022/07/04 04:14:57;;;;;;;;;;;;;;;20.11;85.20;95481.84;5137097;27;1037;-48
2022/07/04 04:17:23;;;;;;;;;;;;;;;20.16;85.19;95471.16;5137109;27;1364;-48
2022/07/04 04:19:49;;;;;;;;;;;;;;;20.26;87.33;95481.56;5136942;27;1203;-48
2022/07/04 04:22:15;;;;;;;;;;;;;;;20.35;84.65;95479.47;5137061;27;1020;-48
2022/07/04 04:24:41;;;;;;;;;;;;;;;20.37;84.51;95480.91;5137153;27;957;-48
2022/07/04 04:27:07;;;;;;;;;;;;;;;20.62;82.95;95485.66;5137084;27;1901;-48
2022/07/04 04:29:33;;;;;;;;;;;;;;;20.83;83.60;95474.47;5136875;27;1052;-48
2022/07/04 04:31:59;;;;;;;;;;;;;;;21.02;82.95;95480.03;5137015;27;976;-48
2022/07/04 04:34:25;;;;;;;;;;;;;;;21.11;82.25;95481.41;5136839;27;973;-48
2022/07/04 04:36:51;;;;;;;;;;;;;;;21.18;82.28;95494.97;5137129;27;1048;-48
2022/07/04 04:39:17;;;;;;;;;;;;;;;21.20;81.79;95492.88;5136548;27;1024;-48
2022/07/04 04:41:43;;;;;;;;;;;;;;;21.41;82.46;95494.41;5136983;27;980;-48
2022/07/04 04:44:09;;;;;;;;;;;;;;;21.46;79.24;95497.31;5155998;27;1977;-49
2022/07/04 04:46:35;;;;;;;;;;;;;;;21.46;77.99;95502.78;5157430;27;1032;-48
2022/07/04 04:49:01;;;;;;;;;;;;;;;21.48;77.96;95503.38;5156944;27;1910;-49
2022/07/04 04:51:27;;;;;;;;;;;;;;;21.44;79.44;95511.16;5157594;27;1027;-49
2022/07/04 04:53:53;;;;;;;;;;;;;;;21.51;78.14;95504.81;5157279;27;1035;-48
2022/07/04 04:56:19;;;;;;;;;;;;;;;21.69;77.36;95504.88;5157275;27;1076;-49
2022/07/04 04:58:46;;;;;;;;;;;;;;;21.67;76.95;95501.56;5156977;27;1083;-49
2022/07/04 05:01:12;;;;;;;;;;;;;;;21.68;77.78;95502.38;5157144;27;924;-49
2022/07/04 05:03:37;;;;;;;;;;;;;;;21.66;78.86;95496.34;5156960;27;1079;-49
2022/07/04 05:06:03;;;;;;;;;;;;;;;21.86;77.96;95494.28;5156671;27;1850;-52
2022/07/04 05:08:30;;;;;;;;;;;;;;;22.04;76.51;95498.91;5157127;27;2079;-48
2022/07/04 05:10:56;;;;;;;;;;;;;;;21.99;76.21;95498.78;5156756;27;1075;-48
2022/07/04 05:13:22;;;;;;;;;;;;;;;22.06;76.41;95506.84;5156785;27;1016;-49
2022/07/04 05:15:48;;;;;;;;;;;;;;;22.18;75.64;95495.00;5156715;27;972;-49
2022/07/04 05:18:14;;;;;;;;;;;;;;;22.25;75.30;95497.69;5137118;27;1253;-49
2022/07/04 05:20:40;;;;;;;;;;;;;;;22.53;74.45;95496.34;5156510;27;1049;-49
2022/07/04 05:23:06;;;;;;;;;;;;;;;22.74;74.19;95495.03;5157012;27;1051;-49
2022/07/04 05:25:32;;;;;;;;;;;;;;;22.86;72.14;95492.34;5156660;27;1213;-49
2022/07/04 05:27:58;;;;;;;;;;;;;;;22.95;72.22;95493.69;5156687;27;1910;-49
2022/07/04 05:30:24;;;;;;;;;;;;;;;22.98;74.79;95493.25;5156462;27;1139;-49
2022/07/04 05:32:51;;;;;;;;;;;;;;;22.95;72.10;95489.06;5156411;27;977;-48
2022/07/04 05:35:17;;;;;;;;;;;;;;;23.02;74.09;95478.09;5156213;27;973;-48
2022/07/04 05:37:43;;;;;;;;;;;;;;;23.04;74.25;95486.91;5156403;27;1183;-49
2022/07/04 05:40:09;;;;;;;;;;;;;;;23.06;72.41;95478.50;5156252;27;1030;-48
2022/07/04 05:42:36;;;;;;;;;;;;;;;23.17;72.87;95473.06;5150055;27;1230;-49
2022/07/04 05:45:02;;;;;;;;;;;;;;;23.31;71.90;95476.44;5135259;27;1095;-49
2022/07/04 05:47:28;;;;;;;;;;;;;;;23.25;70.59;95471.09;5117447;27;1909;-49
2022/07/04 05:49:54;;;;;;;;;;;;;;;23.52;73.38;95472.34;5135521;27;1023;-49
2022/07/04 05:52:20;;;;;;;;;;;;;;;23.61;71.60;95461.91;5135502;27;1018;-49
2022/07/04 05:54:46;;;;;;;;;;;;;;;23.78;70.22;95465.63;5135382;27;1008;-49
2022/07/04 05:57:12;;;;;;;;;;;;;;;24.06;70.82;95466.00;5135328;27;996;-49
2022/07/04 05:59:38;;;;;;;;;;;;;;;24.05;69.77;95467.06;5135126;27;1000;-49
2022/07/04 06:02:04;;;;;;;;;;;;;;;24.17;70.69;95470.63;5135087;27;1075;-49
2022/07/04 06:04:30;;;;;;;;;;;;;;;24.27;69.52;95470.84;5135176;27;1042;-49
2022/07/04 06:06:57;;;;;;;;;;;;;;;24.35;69.36;95478.66;5135264;27;1910;-49
2022/07/04 06:09:23;;;;;;;;;;;;;;;24.47;70.65;95480.53;5135034;27;985;-49
2022/07/04 06:11:49;;;;;;;;;;;;;;;24.67;69.76;95475.56;5134908;27;2088;-49
2022/07/04 06:14:15;;;;;;;;;;;;;;;24.53;68.79;95477.72;5134996;27;1031;-49
2022/07/04 06:16:41;;;;;;;;;;;;;;;24.52;69.83;95483.44;5134705;27;1088;-49
2022/07/04 06:19:07;;;;;;;;;;;;;;;24.63;66.64;95477.09;5134798;27;1088;-49
2022/07/04 06:21:33;;;;;;;;;;;;;;;24.79;67.23;95477.41;5134886;27;1059;-49
2022/07/04 06:23:59;;;;;;;;;;;;;;;24.93;67.53;95476.91;5134957;27;1038;-49
2022/07/04 06:26:25;;;;;;;;;;;;;;;25.16;66.21;95471.59;5134768;27;1091;-49
2022/07/04 06:28:51;;;;;;;;;;;;;;;25.15;66.71;95470.72;5134440;27;2005;-49
2022/07/04 06:31:17;;;;;;;;;;;;;;;25.24;67.71;95473.94;5134460;27;1017;-50
2022/07/04 06:36:28;;;;;;;;;;;;;;;25.32;65.60;95460.69;5134707;27;1058;-49
2022/07/04 06:38:54;;;;;;;;;;;;;;;25.53;65.17;95463.78;5134777;27;1007;-50
2022/07/04 06:41:20;;;;;;;;;;;;;;;25.72;66.28;95461.63;5134404;27;1058;-49
2022/07/04 06:43:46;;;;;;;;;;;;;;;25.92;64.85;95455.69;5150771;27;1153;-49
2022/07/04 06:46:12;;;;;;;;;;;;;;;26.05;63.68;95455.34;5154946;27;1042;-49
2022/07/04 06:48:38;;;;;;;;;;;;;;;26.13;62.87;95448.59;5155314;27;1984;-49
2022/07/04 06:51:04;;;;;;;;;;;;;;;26.19;62.78;95444.84;5155074;27;1011;-49
2022/07/04 06:53:30;;;;;;;;;;;;;;;26.32;63.01;95440.91;5155242;27;1016;-49
2022/07/04 06:55:56;;;;;;;;;;;;;;;26.41;63.02;95439.41;5154862;27;1987;-49
2022/07/04 06:58:22;;;;;;;;;;;;;;;26.63;63.06;95439.41;5155512;27;1222;-49
2022/07/04 07:00:48;;;;;;;;;;;;;;;26.71;62.42;95440.06;5155337;27;1043;-49
2022/07/04 07:03:14;;;;;;;;;;;;;;;26.75;63.25;95432.97;5154927;27;1094;-49
2022/07/04 07:05:40;;;;;;;;;;;;;;;26.83;61.96;95435.28;5154810;27;1059;-49
2022/07/04 07:08:06;;;;;;;;;;;;;;;27.05;62.43;95427.84;5154973;27;1922;-49
2022/07/04 07:10:32;;;;;;;;;;;;;;;27.21;60.70;95430.75;5154881;27;1039;-49
2022/07/04 07:12:59;;;;;;;;;;;;;;;27.19;60.69;95431.00;5154988;27;1109;-49
2022/07/04 07:15:25;;;;;;;;;;;;;;;27.23;60.80;95417.59;5154753;27;1054;-49
2022/07/04 07:17:51;;;;;;;;;;;;;;;27.22;61.15;95419.53;5154952;27;1124;-50
2022/07/04 07:20:17;;;;;;;;;;;;;;;27.33;61.01;95423.19;5155005;27;1019;-49
2022/07/04 07:22:43;;;;;;;;;;;;;;;27.44;61.64;95416.72;5154730;27;1309;-49
2022/07/04 07:25:09;;;;;;;;;;;;;;;27.51;61.22;95415.66;5154801;27;985;-49
2022/07/04 07:27:36;;;;;;;;;;;;;;;27.60;60.19;95414.94;5154621;27;1906;-49
2022/07/04 07:30:02;;;;;;;;;;;;;;;27.74;59.46;95417.25;5154631;27;1083;-50
2022/07/04 07:32:28;;;;;;;;;;;;;;;27.76;59.64;95412.31;5154792;27;983;-49
2022/07/04 07:34:54;;;;;;;;;;;;;;;27.83;60.84;95416.47;5154681;27;1022;-49
2022/07/04 07:37:22;;;;;;;;;;;;;;;27.99;58.42;95408.38;5154431;27;1079;-49
2022/07/04 07:39:48;;;;;;;;;;;;;;;28.10;57.12;95403.78;5154911;27;1011;-49
2022/07/04 07:42:14;;;;;;;;;;;;;;;28.16;58.96;95406.28;5155226;27;1140;-49
2022/07/04 07:44:40;;;;;;;;;;;;;;;28.23;57.51;95404.13;5137809;27;1045;-49
2022/07/04 07:47:07;;;;;;;;;;;;;;;28.31;57.05;95410.22;5137737;27;1910;-49
2022/07/04 07:49:33;;;;;;;;;;;;;;;28.34;55.75;95406.91;5137802;27;1861;-49
2022/07/04 07:51:59;;;;;;;;;;;;;;;28.40;56.94;95408.59;5137582;27;1023;-50
2022/07/04 07:54:25;;;;;;;;;;;;;;;28.48;55.49;95397.09;5137642;27;1063;-50
2022/07/04 07:56:51;;;;;;;;;;;;;;;28.61;55.23;95393.06;5137477;27;1095;-49
2022/07/04 07:59:17;;;;;;;;;;;;;;;28.69;54.07;95391.72;5137476;27;957;-49
2022/07/04 08:01:43;;;;;;;;;;;;;;;28.79;55.22;95395.31;5137610;27;1062;-49
2022/07/04 08:06:54;;;;;;;;;;;;;;;29.07;55.17;95392.38;5137336;27;913;-49
2022/07/04 08:09:20;;;;;;;;;;;;;;;29.16;52.87;95393.53;5137360;27;1052;-49
2022/07/04 08:11:47;;;;;;;;;;;;;;;29.15;53.39;95391.84;5137111;27;1048;-49
2022/07/04 08:14:13;;;;;;;;;;;;;;;29.15;51.49;95389.09;5137483;27;916;-50
2022/07/04 08:16:40;;;;;;;;;;;;;;;29.23;52.18;95394.06;5137136;27;1099;-50
2022/07/04 08:19:06;;;;;;;;;;;;;;;29.15;49.63;95387.16;5136976;27;1107;-50
2022/07/04 08:21:32;;;;;;;;;;;;;;;29.24;52.15;95389.41;5137283;27;1059;-49
2022/07/04 08:23:58;;;;;;;;;;;;;;;29.48;52.89;95389.66;5136955;27;1024;-50
2022/07/04 08:26:25;;;;;;;;;;;;;;;29.62;52.90;95393.53;5137002;27;1018;-49
2022/07/04 08:28:52;;;;;;;;;;;;;;;29.70;52.89;95392.97;5137104;27;2000;-50
2022/07/04 08:31:18;;;;;;;;;;;;;;;29.83;54.74;95396.31;5137146;27;996;-49
2022/07/04 08:33:44;;;;;;;;;;;;;;;29.94;52.32;95396.03;5136984;27;1015;-49
2022/07/04 08:36:10;;;;;;;;;;;;;;;29.96;52.27;95396.56;5136607;27;1075;-49
2022/07/04 08:38:36;;;;;;;;;;;;;;;29.88;50.92;95393.53;5136840;27;977;-49
2022/07/04 08:41:03;;;;;;;;;;;;;;;29.84;50.18;95387.78;5136698;27;1000;-49
2022/07/04 08:43:33;;;;;;;;;;;;;;;29.82;51.23;95387.19;5150311;27;1161;-49
2022/07/04 08:45:59;;;;;;;;;;;;;;;29.88;51.17;95390.78;5157766;27;1031;-49
2022/07/04 08:48:28;;;;;;;;;;;;;;;29.91;50.31;95391.06;5157316;27;1996;-50
2022/07/04 08:50:57;;;;;;;;;;;;;;;29.95;49.89;95389.38;5157240;27;1912;-49
2022/07/04 08:53:27;;;;;;;;;;;;;;;30.02;52.03;95383.59;5156975;27;1035;-49
2022/07/04 08:58:39;;;;;;;;;;;;;;;30.03;50.91;95389.94;5157192;27;1019;-49
2022/07/04 09:01:07;;;;;;;;;;;;;;;30.11;49.82;95381.13;5157154;27;1051;-50
2022/07/04 09:03:33;;;;;;;;;;;;;;;30.26;50.15;95385.75;5157442;27;961;-50
2022/07/04 09:06:00;;;;;;;;;;;;;;;30.35;51.06;95382.19;5156866;27;1051;-50
2022/07/04 09:08:26;;;;;;;;;;;;;;;30.41;50.98;95380.22;5156935;27;2000;-50
2022/07/04 09:10:53;;;;;;;;;;;;;;;30.34;48.32;95375.00;5156939;27;1126;-49
2022/07/04 09:13:19;;;;;;;;;;;;;;;30.28;47.81;95373.34;5156607;27;1076;-49
2022/07/04 09:15:47;;;;;;;;;;;;;;;30.17;48.08;95369.78;5156890;27;1864;-49
2022/07/04 09:18:22;;;;;;;;;;;;;;;30.12;48.03;95369.78;5156396;27;1103;-50
2022/07/04 09:20:48;;;;;;;;;;;;;;;30.14;47.84;95367.56;5156727;27;1031;-50
2022/07/04 09:23:18;;;;;;;;;;;;;;;30.26;47.65;95369.19;5156674;27;999;-49
2022/07/04 09:25:45;;;;;;;;;;;;;;;30.24;46.27;95369.50;5156856;27;1020;-49
2022/07/04 09:28:11;;;;;;;;;;;;;;;30.26;48.14;95366.44;5156294;27;1909;-50
2022/07/04 09:30:46;;;;;;;;;;;;;;;30.18;46.82;95348.53;5156709;27;968;-50
2022/07/04 09:33:12;;;;;;;;;;;;;;;30.44;48.20;95354.00;5156289;27;1032;-49
2022/07/04 09:35:38;;;;;;;;;;;;;;;30.58;47.20;95354.22;5156231;27;1008;-50
2022/07/04 09:38:04;;;;;;;;;;;;;;;30.66;48.13;95350.88;5156223;27;1129;-50
2022/07/04 09:43:22;;;;;;;;;;;;;;;30.71;44.94;95348.06;5143241;27;1211;-50
2022/07/04 09:45:55;;;;;;;;;;;;;;;30.72;41.72;95335.94;5135553;27;1043;-50
2022/07/04 09:48:22;;;;;;;;;;;;;;;30.65;44.45;95340.94;5135169;27;2000;-50
2022/07/04 09:50:48;;;;;;;;;;;;;;;30.68;43.10;95335.69;5135448;27;1028;-50
2022/07/04 09:53:14;;;;;;;;;;;;;;;30.75;44.95;95338.97;5135369;27;965;-50
2022/07/04 09:55:40;;;;;;;;;;;;;;;30.87;44.97;95335.84;5135296;27;1067;-49
2022/07/04 09:58:10;;;;;;;;;;;;;;;30.93;46.68;95334.72;5135778;27;1108;-49
2022/07/04 10:00:40;;;;;;;;;;;;;;;30.92;44.39;95330.34;5135046;27;995;-49
2022/07/04 10:03:15;;;;;;;;;;;;;;;30.98;45.74;95333.03;5134552;27;1048;-50
2022/07/04 10:05:41;;;;;;;;;;;;;;;31.04;45.67;95331.91;5134976;27;956;-50
2022/07/04 10:08:07;;;;;;;;;;;;;;;31.08;47.25;95328.28;5135080;27;1906;-49
2022/07/04 10:10:34;;;;;;;;;;;;;;;31.08;46.37;95327.47;5134946;27;1024;-49
2022/07/04 10:13:02;;;;;;;;;;;;;;;31.10;45.29;95322.47;5134855;27;1036;-50
2022/07/04 10:15:28;;;;;;;;;;;;;;;31.11;44.98;95318.59;5134845;27;1020;-50
2022/07/04 10:17:54;;;;;;;;;;;;;;;31.18;46.53;95321.03;5134835;27;1230;-50
2022/07/04 10:20:21;;;;;;;;;;;;;;;31.23;45.20;95318.25;5134873;27;999;-50
2022/07/04 10:22:47;;;;;;;;;;;;;;;31.22;44.64;95322.13;5134993;27;981;-50
2022/07/04 10:25:13;;;;;;;;;;;;;;;31.04;46.80;95320.88;5134578;27;1021;-50
2022/07/04 10:27:39;;;;;;;;;;;;;;;31.06;45.19;95324.19;5134672;27;1964;-50
2022/07/04 10:30:07;;;;;;;;;;;;;;;31.11;45.68;95318.59;5135001;27;954;-50
2022/07/04 10:32:34;;;;;;;;;;;;;;;30.99;44.87;95329.19;5134748;27;1020;-50
2022/07/04 10:35:00;;;;;;;;;;;;;;;31.00;45.93;95325.31;5134374;27;1027;-50
2022/07/04 10:37:46;;;;;;;;;;;;;;;31.06;46.69;95322.22;5134760;27;973;-50
2022/07/04 10:40:32;;;;;;;;;;;;;;;31.18;45.02;95332.91;5134292;27;1660;-50
2022/07/04 10:42:58;;;;;;;;;;;;;;;31.19;43.09;95322.69;5143758;27;1228;-50
2022/07/04 10:45:33;;;;;;;;;;;;;;;31.13;43.45;95321.88;5155074;27;1067;-50
2022/07/04 10:47:59;;;;;;;;;;;;;;;31.18;42.41;95316.34;5155130;27;1901;-50
2022/07/04 10:50:28;;;;;;;;;;;;;;;31.25;43.12;95310.50;5154989;27;1016;-50
2022/07/04 10:53:08;;;;;;;;;;;;;;;31.17;45.89;95305.56;5155438;27;995;-50
2022/07/04 10:55:34;;;;;;;;;;;;;;;31.19;46.68;95308.88;5155014;27;1024;-50
2022/07/04 10:58:00;;;;;;;;;;;;;;;31.23;45.38;95296.97;5155125;27;952;-50
2022/07/04 11:00:26;;;;;;;;;;;;;;;31.28;46.16;95308.00;5154861;27;1047;-50
2022/07/04 11:03:12;;;;;;;;;;;;;;;31.25;45.08;95310.50;5155149;27;960;-50
2022/07/04 11:05:38;;;;;;;;;;;;;;;30.78;41.73;95306.38;5154614;27;1727;-50
2022/07/04 11:08:06;;;;;;;;;;;;;;;30.45;46.29;95306.00;5155014;27;1937;-50
2022/07/04 11:10:36;;;;;;;;;;;;;;;30.27;45.40;95301.91;5154792;27;1012;-49
2022/07/04 11:13:06;;;;;;;;;;;;;;;30.51;45.59;95302.13;5154909;27;1127;-50
2022/07/04 11:15:32;;;;;;;;;;;;;;;30.81;45.12;95286.47;5156337;27;1047;-50
2022/07/04 11:18:02;;;;;;;;;;;;;;;31.05;43.68;95284.69;5158973;27;1240;-50
2022/07/04 11:20:30;;;;;;;;;;;;;;;31.20;43.93;95280.97;5159150;27;956;-50
2022/07/04 11:23:09;;;;;;;;;;;;;;;31.31;44.61;95277.00;5159241;27;1059;-50
2022/07/04 11:25:36;;;;;;;;;;;;;;;31.21;44.74;95284.56;5158920;27;1029;-50
2022/07/04 11:28:17;;;;;;;;;;;;;;;30.96;45.21;95286.41;5158824;27;1984;-50
2022/07/04 11:30:50;;;;;;;;;;;;;;;30.64;46.16;95284.94;5158989;27;1039;-50
2022/07/04 11:33:18;;;;;;;;;;;;;;;30.43;47.21;95283.38;5158993;27;1050;-50
2022/07/04 11:35:44;;;;;;;;;;;;;;;30.54;49.01;95280.31;5158618;27;968;-50
2022/07/04 11:38:10;;;;;;;;;;;;;;;30.71;47.14;95268.88;5158782;27;972;-50
2022/07/04 11:46:13;;;;;;;;;;;;;;;31.12;44.54;95256.75;5137816;27;1023;-50
2022/07/04 11:48:39;;;;;;;;;;;;;;;31.14;44.83;95246.25;5137872;27;1910;-49
2022/07/04 11:51:15;;;;;;;;;;;;;;;31.06;42.07;95250.44;5137593;27;976;-49
2022/07/04 11:53:41;;;;;;;;;;;;;;;31.10;46.47;95246.00;5138039;27;1040;-49
2022/07/04 11:56:09;;;;;;;;;;;;;;;31.19;45.30;95251.72;5137635;27;1021;-50
2022/07/04 11:58:42;;;;;;;;;;;;;;;31.17;44.02;95242.91;5137816;27;1031;-50
2022/07/04 12:01:09;;;;;;;;;;;;;;;31.19;45.07;95243.44;5137345;27;925;-50
2022/07/04 12:03:36;;;;;;;;;;;;;;;31.24;44.77;95239.78;5137630;27;1066;-50
2022/07/04 12:06:08;;;;;;;;;;;;;;;31.36;44.93;95242.16;5137054;27;1044;-50
2022/07/04 12:08:34;;;;;;;;;;;;;;;31.43;45.71;95237.13;5137418;27;1909;-50
2022/07/04 12:11:00;;;;;;;;;;;;;;;31.40;44.91;95246.00;5137128;27;1102;-50
2022/07/04 12:13:26;;;;;;;;;;;;;;;31.31;44.21;95238.34;5137368;27;1063;-49
2022/07/04 12:15:52;;;;;;;;;;;;;;;31.40;45.14;95226.66;5137278;27;941;-50
2022/07/04 12:18:19;;;;;;;;;;;;;;;31.30;44.85;95231.19;5137124;27;1053;-50
2022/07/04 12:20:46;;;;;;;;;;;;;;;31.30;45.85;95224.81;5137092;27;987;-50
2022/07/04 12:23:12;;;;;;;;;;;;;;;31.12;45.07;95215.34;5137266;27;929;-50
2022/07/04 12:25:39;;;;;;;;;;;;;;;30.92;45.57;95216.31;5137011;27;977;-50
2022/07/04 12:28:09;;;;;;;;;;;;;;;30.83;46.33;95224.38;5136968;27;1914;-50
2022/07/04 12:30:36;;;;;;;;;;;;;;;31.04;46.46;95213.22;5137020;27;1111;-50
2022/07/04 12:33:03;;;;;;;;;;;;;;;31.26;46.52;95218.22;5136742;27;1003;-50
2022/07/04 12:35:38;;;;;;;;;;;;;;;31.33;44.61;95218.72;5136818;27;1043;-50
2022/07/04 12:38:14;;;;;;;;;;;;;;;31.41;43.78;95214.50;5136648;27;1040;-49
2022/07/04 12:40:53;;;;;;;;;;;;;;;31.46;45.19;95215.31;5137043;27;1067;-49
2022/07/04 12:43:19;;;;;;;;;;;;;;;31.44;44.95;95216.69;5148822;27;1266;-50
2022/07/04 12:45:47;;;;;;;;;;;;;;;31.42;45.46;95211.44;5157477;27;957;-49
2022/07/04 12:48:16;;;;;;;;;;;;;;;31.48;44.81;95199.25;5157386;27;1909;-50
2022/07/04 12:50:43;;;;;;;;;;;;;;;31.41;44.89;95204.25;5157430;27;1016;-50
2022/07/04 12:53:09;;;;;;;;;;;;;;;31.12;45.29;95212.56;5157118;27;929;-50
2022/07/04 12:55:40;;;;;;;;;;;;;;;31.01;43.73;95197.22;5157403;27;1044;-49
2022/07/04 12:58:06;;;;;;;;;;;;;;;30.91;44.25;95206.41;5157037;27;1034;-50
2022/07/04 13:00:32;;;;;;;;;;;;;;;30.61;45.72;95212.94;5157207;27;1087;-50
2022/07/04 13:02:58;;;;;;;;;;;;;;;30.32;47.47;95211.75;5157211;27;1031;-50
2022/07/04 13:05:24;;;;;;;;;;;;;;;30.21;47.71;95215.63;5156851;27;1074;-50
2022/07/04 13:07:50;;;;;;;;;;;;;;;30.15;47.32;95209.31;5156947;27;1914;-49
2022/07/04 13:10:16;;;;;;;;;;;;;;;30.33;46.61;95201.53;5138712;27;1031;-50
2022/07/04 13:12:42;;;;;;;;;;;;;;;30.52;47.23;95196.97;5156711;27;1016;-50
2022/07/04 13:15:11;;;;;;;;;;;;;;;30.67;46.66;95201.56;5157155;27;1074;-50
2022/07/04 13:17:37;;;;;;;;;;;;;;;30.73;45.95;95194.94;5156718;27;1020;-50
2022/07/04 13:20:03;;;;;;;;;;;;;;;30.83;44.65;95182.97;5156691;27;1252;-49
2022/07/04 13:22:30;;;;;;;;;;;;;;;30.84;42.52;95181.84;5156696;27;1031;-50